createdAt,value
2022-09-27T04:46:24.025Z,984.05
2022-09-27T06:25:38.549Z,984.52
2022-09-27T07:06:23.006Z,985.06
2022-09-27T07:59:01.537Z,985.35
2022-09-27T08:08:08.775Z,985.41
2022-09-27T08:09:09.684Z,985.40
2022-09-27T08:10:09.378Z,985.42
2022-09-27T08:11:09.379Z,985.46
2022-09-27T08:12:09.373Z,985.46
2022-09-27T08:13:09.382Z,985.47
2022-09-27T08:35:28.790Z,985.73
2022-09-27T08:36:29.665Z,985.73
2022-09-27T08:37:29.572Z,985.74
2022-09-27T08:46:43.290Z,985.80
2022-09-27T08:47:42.103Z,985.81
2022-09-27T08:49:03.919Z,985.81
2022-09-27T08:49:41.848Z,985.81
2022-09-27T09:44:03.002Z,985.74
2022-09-27T09:45:03.902Z,985.77
2022-09-27T09:46:03.915Z,985.75
2022-09-27T09:47:03.646Z,985.74
2022-09-27T09:48:03.688Z,985.76
2022-09-27T09:49:03.544Z,985.76
2022-09-27T09:50:03.584Z,985.74
2022-09-27T09:51:03.636Z,985.72
2022-09-27T09:52:08.592Z,985.71
2022-09-27T09:53:03.530Z,985.73
2022-09-27T09:54:03.547Z,985.77
2022-09-27T09:55:03.572Z,985.75
2022-09-27T09:56:03.511Z,985.73
2022-09-27T09:57:03.467Z,985.79
2022-09-27T09:58:03.502Z,985.75
2022-09-27T09:59:03.509Z,985.75
2022-09-27T10:00:03.547Z,985.78
2022-09-27T10:01:03.525Z,985.76
2022-09-27T10:28:23.733Z,985.65
2022-09-27T10:43:13.017Z,985.64
2022-09-27T10:44:13.843Z,985.63
2022-09-27T10:45:13.729Z,985.62
2022-09-27T10:46:13.564Z,985.65
2022-09-27T10:47:13.739Z,985.59
2022-09-27T10:48:13.703Z,985.60
2022-09-27T10:49:13.560Z,985.61
2022-09-27T10:50:32.505Z,985.60
2022-09-27T10:51:13.569Z,985.62
2022-09-27T10:52:13.516Z,985.61
2022-09-27T10:53:13.586Z,985.63
2022-09-27T12:02:03.481Z,985.68
2022-09-27T12:03:04.202Z,985.57
2022-09-27T12:47:55.290Z,985.63
2022-09-27T14:07:54.999Z,985.60
2022-09-27T14:18:27.119Z,985.64
2022-09-27T14:19:27.338Z,985.66
2022-09-27T14:20:27.185Z,985.67
2022-09-27T14:21:27.239Z,985.65
2022-09-27T14:22:27.130Z,985.64
2022-09-27T14:33:00.932Z,985.65
2022-09-27T14:36:36.985Z,985.63
2022-09-27T14:48:03.447Z,985.69
2022-09-27T15:43:26.260Z,985.77
2022-09-27T16:49:26.996Z,986.09
2022-09-27T16:50:34.436Z,986.05
2022-09-27T16:51:25.734Z,986.07
2022-09-27T17:05:14.463Z,985.97
2022-09-27T17:06:15.468Z,985.98
2022-09-27T17:07:15.568Z,985.98
2022-09-27T17:08:15.425Z,985.98
2022-09-27T17:09:15.421Z,985.99
2022-09-27T17:10:15.427Z,986.01
2022-09-27T17:11:15.360Z,986.02
2022-09-27T17:12:15.374Z,986.02
2022-09-27T17:13:15.394Z,986.01
2022-09-27T17:14:15.397Z,986.00
2022-09-27T17:15:16.519Z,986.00
2022-09-27T18:09:56.543Z,985.67
2022-09-27T18:10:50.325Z,985.65
2022-09-27T18:24:12.747Z,985.61
2022-09-27T18:25:13.927Z,985.61
2022-09-27T18:26:13.615Z,985.63
2022-09-27T18:27:13.550Z,985.63
2022-09-27T18:28:24.389Z,985.63
2022-09-27T18:30:53.776Z,985.64
2022-09-27T18:31:53.619Z,985.63
2022-09-27T18:32:53.643Z,985.64
2022-09-27T18:33:53.498Z,985.64
2022-09-27T18:34:53.532Z,985.63
2022-09-27T18:35:53.566Z,985.63
2022-09-27T18:40:38.030Z,985.62
2022-09-27T18:41:22.050Z,985.60
2022-09-27T19:00:13.921Z,985.43
2022-09-27T19:10:21.839Z,985.40
2022-09-27T19:11:22.698Z,985.37
2022-09-27T19:12:22.536Z,985.38
2022-09-27T19:13:27.819Z,985.36
2022-09-27T19:14:22.583Z,985.37
2022-09-27T19:15:22.928Z,985.38
2022-09-27T19:16:22.497Z,985.39
2022-09-27T19:17:22.434Z,985.39
2022-09-27T19:18:22.498Z,985.40
2022-09-27T19:19:22.504Z,985.38
2022-09-27T19:20:22.513Z,985.39
2022-09-27T19:21:22.538Z,985.39
2022-09-27T19:22:22.434Z,985.39
2022-09-27T19:23:22.613Z,985.39
2022-09-27T19:24:22.414Z,985.38
2022-09-27T19:25:22.360Z,985.38
2022-09-27T19:26:22.618Z,985.37
2022-09-27T19:27:22.679Z,985.38
2022-09-27T19:28:22.358Z,985.37
2022-09-27T19:29:22.723Z,985.36
2022-09-27T19:30:22.600Z,985.36
2022-09-27T19:31:22.495Z,985.36
2022-09-27T20:09:29.081Z,985.21
2022-09-27T20:10:30.083Z,985.21
2022-09-27T20:11:29.881Z,985.19
2022-09-27T20:12:30.135Z,985.19
2022-09-27T20:13:29.984Z,985.19
2022-09-27T20:14:29.909Z,985.20
2022-09-27T20:15:29.951Z,985.20
2022-09-27T20:21:33.669Z,985.12
2022-09-27T20:25:52.662Z,985.16
2022-09-27T20:26:53.517Z,985.16
2022-09-27T20:27:53.489Z,985.13
2022-09-27T20:37:40.685Z,985.08
2022-09-27T20:38:41.579Z,985.07
2022-09-27T20:39:41.465Z,985.08
2022-09-27T20:40:41.511Z,985.06
2022-09-27T20:41:41.405Z,985.04
2022-09-27T20:42:41.398Z,985.04
2022-09-27T20:43:41.379Z,985.03
2022-09-27T20:44:41.394Z,985.03
2022-09-27T20:47:37.819Z,985.00
2022-09-27T20:48:38.813Z,984.98
2022-09-27T20:49:38.697Z,984.97
2022-09-27T20:50:38.889Z,984.96
2022-09-27T20:51:38.618Z,984.95
2022-09-27T20:52:38.630Z,984.94
2022-09-27T20:53:38.593Z,984.91
2022-09-27T20:54:38.636Z,984.89
2022-09-27T20:55:38.734Z,984.88
2022-09-27T20:56:38.694Z,984.86
2022-09-27T20:57:56.396Z,984.85
2022-09-27T20:58:38.574Z,984.85
2022-09-27T20:59:38.539Z,984.85
2022-09-27T21:00:38.701Z,984.82
2022-09-27T21:01:38.523Z,984.81
2022-09-27T21:02:38.823Z,984.80
2022-09-27T21:03:38.545Z,984.80
2022-09-27T21:04:38.500Z,984.79
2022-09-27T21:05:38.536Z,984.77
2022-09-27T21:06:38.522Z,984.78
2022-09-27T21:07:38.452Z,984.77
2022-09-27T21:08:38.446Z,984.77
2022-09-27T21:09:38.621Z,984.76
2022-09-27T21:10:38.429Z,984.76
2022-09-27T21:11:38.438Z,984.76
2022-09-27T21:12:38.444Z,984.76
2022-09-27T21:13:38.383Z,984.76
2022-09-27T21:42:04.707Z,984.53
2022-09-27T21:43:05.566Z,984.54
2022-09-27T21:44:05.666Z,984.53
2022-09-27T21:45:05.587Z,984.53
2022-09-27T21:46:05.509Z,984.53
2022-09-27T21:47:05.603Z,984.53
2022-09-27T21:48:05.843Z,984.52
2022-09-27T21:49:05.586Z,984.52
2022-09-27T21:50:05.454Z,984.52
2022-09-27T21:51:05.445Z,984.52
2022-09-27T21:52:05.425Z,984.52
2022-09-27T21:53:05.452Z,984.52
2022-09-27T21:56:16.581Z,984.49
2022-09-27T21:57:17.345Z,984.49
2022-09-27T22:26:31.790Z,984.41
2022-09-27T22:27:32.510Z,984.40
2022-09-27T22:28:32.252Z,984.39
2022-09-27T22:29:32.271Z,984.38
2022-09-27T23:58:06.599Z,983.82
2022-09-27T23:58:18.851Z,983.80
2022-09-27T23:59:18.652Z,983.79
